Terminal Aerodrome Forecast
Issued by NWS

Current Version | Previous Version | Graphics & Text | Print | Product List | Glossary On
Versions: 1 2 3 4 5 6 7 8 9 10 11 12 13 14 15 16 17 18 19 20 21 22 23 24 25 26 27 28 29 30 31
000
FTUS41 KILN 011241 AAA
TAFLUK
TAF AMD
KLUK 011241Z 0113/0212 20006KT P6SM FEW015 BKN080
      TEMPO 0113/0115 BKN018
     FM011700 26005KT P6SM VCSH SCT028 BKN040
      TEMPO 0120/0124 P6SM -SHRA SCT025 BKN035
     FM020200 21005KT P6SM SCT050 BKN080
     FM020600 21005KT P6SM VCSH BKN050=

USA.gov is the U.S. government's official web portal to all federal, state and local government web resources and services.